Time;durP1;ratioP1;P1;durP2;ratioP2;P2;SDS_P1;SDS_P2;PMS_P1;PMS_P2;Temp;Humidity;BMP_temperature;BMP_pressure;BME280_temperature;BME280_humidity;BME280_pressure;Samples;Min_cycle;Max_cycle;Signal;HPM_P1;HPM_P2
2022/02/11 00:01:10;;;;;;;17.80;16.80;;;7.40;82.00;;;;;;4968505;28;20061;-85
2022/02/11 00:08:57;;;;;;;17.50;16.70;;;7.40;81.90;;;;;;4962017;28;20042;-87
2022/02/11 00:11:36;;;;;;;17.55;16.55;;;7.40;81.90;;;;;;4972829;28;20421;-86
2022/02/11 00:14:03;;;;;;;16.40;15.60;;;7.30;81.90;;;;;;4971673;28;20386;-86
2022/02/11 00:16:30;;;;;;;17.10;16.30;;;7.30;82.00;;;;;;4972372;28;20035;-85
2022/02/11 00:18:59;;;;;;;16.85;16.05;;;7.30;82.00;;;;;;4971434;28;20022;-87
2022/02/11 00:21:31;;;;;;;17.10;16.30;;;7.20;82.00;;;;;;4969831;28;20049;-85
2022/02/11 00:23:57;;;;;;;17.23;16.43;;;7.20;82.10;;;;;;4971195;28;20390;-87
2022/02/11 00:26:38;;;;;;;17.73;16.93;;;7.20;82.00;;;;;;4970568;28;20046;-87
2022/02/11 00:34:20;;;;;;;17.10;16.30;;;7.10;82.00;;;;;;4956939;28;20039;-86
2022/02/11 00:37:11;;;;;;;17.30;16.50;;;7.10;82.10;;;;;;4968497;28;20069;-86
2022/02/11 01:03:58;;;;;;;16.87;16.07;;;6.70;82.10;;;;;;4914504;29;20051;-87
2022/02/11 01:06:25;;;;;;;16.73;15.93;;;6.70;82.20;;;;;;4911037;29;20044;-86
2022/02/11 01:08:52;;;;;;;17.97;16.97;;;6.60;82.10;;;;;;4912560;29;20495;-87
2022/02/11 01:11:25;;;;;;;17.60;16.43;;;6.60;82.20;;;;;;4909846;29;20067;-86
2022/02/11 01:13:51;;;;;;;16.83;16.03;;;6.60;82.20;;;;;;4909268;29;20044;-87
2022/02/11 01:16:23;;;;;;;16.80;16.00;;;6.60;82.20;;;;;;4910055;29;20052;-87
2022/02/11 01:18:58;;;;;;;17.63;16.83;;;6.50;82.20;;;;;;4910214;29;20515;-87
2022/02/11 01:21:33;;;;;;;16.60;15.80;;;6.50;82.10;;;;;;4910418;29;20348;-86
2022/02/11 01:27:15;;;;;;;17.70;16.90;;;6.40;82.10;;;;;;4880928;29;20045;-86
2022/02/11 01:47:51;;;;;;;17.10;16.30;;;6.20;82.20;;;;;;4880000;29;20044;-85
2022/02/11 01:50:33;;;;;;;18.27;17.30;;;6.20;82.20;;;;;;4881486;29;20056;-86
2022/02/11 02:09:37;;;;;;;17.27;16.47;;;6.00;82.10;;;;;;4884730;29;20048;-86
2022/02/11 02:22:52;;;;;;;17.50;16.70;;;5.80;82.20;;;;;;4868744;29;20143;-86
2022/02/11 02:28:07;;;;;;;17.50;16.60;;;5.80;82.20;;;;;;4862459;29;20040;-86
2022/02/11 02:36:40;;;;;;;15.83;15.13;;;5.70;82.10;;;;;;4854526;29;20052;-86
2022/02/11 02:39:13;;;;;;;16.90;16.10;;;5.70;83.00;;;;;;4872225;29;20512;-86
2022/02/11 02:57:53;;;;;;;17.33;16.53;;;5.60;82.30;;;;;;4964859;28;20046;-86
2022/02/11 04:55:03;;;;;;;16.87;16.07;;;4.60;82.10;;;;;;4970539;28;20046;-86
2022/02/11 05:00:14;;;;;;;16.17;15.47;;;4.50;82.20;;;;;;4972008;28;20050;-88
2022/02/11 05:02:42;;;;;;;16.90;16.10;;;4.50;82.10;;;;;;4972228;28;20035;-88
2022/02/11 05:05:09;;;;;;;16.53;15.73;;;4.50;82.20;;;;;;4965813;28;20038;-88
2022/02/11 05:07:36;;;;;;;16.50;15.70;;;4.50;82.20;;;;;;4971860;28;20034;-88
2022/02/11 05:10:03;;;;;;;16.53;15.73;;;4.40;82.10;;;;;;4959765;28;20034;-87
2022/02/11 05:12:29;;;;;;;16.50;15.70;;;4.50;82.30;;;;;;4958151;28;20050;-87
2022/02/11 05:14:55;;;;;;;17.53;16.60;;;4.40;82.20;;;;;;4963277;28;20040;-88
2022/02/11 05:17:21;;;;;;;17.07;16.27;;;4.40;82.20;;;;;;4974999;28;20038;-86
2022/02/11 05:19:47;;;;;;;16.63;15.83;;;4.40;82.40;;;;;;4976263;28;20034;-88
2022/02/11 05:22:14;;;;;;;16.50;15.70;;;4.40;82.30;;;;;;4968106;28;20042;-88
2022/02/11 05:24:40;;;;;;;16.70;15.90;;;4.40;82.30;;;;;;4959116;28;20043;-88
2022/02/11 05:27:06;;;;;;;16.50;15.70;;;4.40;82.20;;;;;;4975110;28;20489;-87
2022/02/11 05:29:32;;;;;;;16.47;15.67;;;4.40;82.20;;;;;;4976063;28;20031;-89
2022/02/11 05:31:58;;;;;;;16.50;15.70;;;4.30;82.10;;;;;;4975049;28;20440;-88
2022/02/11 05:34:24;;;;;;;16.90;16.10;;;4.30;82.10;;;;;;4975774;28;20030;-87
2022/02/11 05:36:50;;;;;;;16.93;16.10;;;4.30;82.10;;;;;;4975457;28;20031;-87
2022/02/11 05:39:17;;;;;;;16.20;15.50;;;4.20;82.10;;;;;;4962288;28;20030;-87
2022/02/11 05:41:43;;;;;;;16.60;15.80;;;4.20;82.20;;;;;;4972869;28;20414;-87
2022/02/11 05:44:09;;;;;;;16.77;15.97;;;4.20;82.10;;;;;;4975613;28;20037;-88
2022/02/11 05:46:35;;;;;;;15.63;14.93;;;4.20;82.10;;;;;;4975156;28;20031;-87
2022/02/11 05:49:01;;;;;;;16.70;15.90;;;4.20;82.10;;;;;;4975686;28;20034;-89
2022/02/11 05:51:27;;;;;;;15.87;15.17;;;4.10;82.00;;;;;;4973723;28;20425;-88
2022/02/11 05:53:53;;;;;;;15.93;15.23;;;4.10;82.10;;;;;;4964568;28;20485;-88
2022/02/11 05:56:19;;;;;;;16.07;15.17;;;4.10;82.10;;;;;;4965414;28;20035;-88
2022/02/11 05:58:46;;;;;;;17.33;16.50;;;4.10;82.20;;;;;;4971659;28;20038;-88
2022/02/11 06:01:12;;;;;;;15.70;15.00;;;4.10;82.20;;;;;;4974749;28;20038;-87
2022/02/11 06:03:38;;;;;;;15.73;15.03;;;4.00;82.20;;;;;;4974707;28;20489;-87
2022/02/11 06:06:04;;;;;;;16.67;15.87;;;4.00;82.10;;;;;;4961257;28;20029;-86
2022/02/11 06:08:30;;;;;;;15.97;15.27;;;4.00;82.10;;;;;;4973438;28;20385;-82
2022/02/11 06:10:56;;;;;;;16.03;15.23;;;4.00;82.90;;;;;;4974349;28;20050;-84
2022/02/11 06:13:22;;;;;;;15.83;15.10;;;4.00;82.20;;;;;;4973816;28;20401;-84
2022/02/11 06:15:48;;;;;;;18.27;17.27;;;4.00;82.10;;;;;;4974711;28;20042;-85
2022/02/11 06:18:14;;;;;;;16.63;15.83;;;4.00;82.10;;;;;;4965146;28;20038;-85
2022/02/11 06:20:41;;;;;;;14.87;14.17;;;4.00;82.10;;;;;;4975124;28;20465;-86
2022/02/11 06:23:07;;;;;;;17.20;16.10;;;4.00;82.00;;;;;;4973076;28;20031;-86
2022/02/11 06:25:33;;;;;;;16.00;15.30;;;4.00;82.00;;;;;;4973562;28;20043;-88
2022/02/11 06:27:59;;;;;;;16.00;15.30;;;4.00;82.00;;;;;;4970381;28;20031;-86
2022/02/11 06:30:26;;;;;;;15.97;15.27;;;4.00;82.00;;;;;;4970301;28;20042;-89
2022/02/11 06:32:53;;;;;;;16.30;15.50;;;4.00;82.00;;;;;;4973861;28;20058;-87
2022/02/11 06:35:19;;;;;;;16.37;15.60;;;4.00;82.00;;;;;;4972845;28;20043;-88
2022/02/11 06:37:45;;;;;;;16.73;15.73;;;4.00;82.00;;;;;;4974090;28;20045;-88
2022/02/11 06:40:14;;;;;;;16.03;15.33;;;4.00;82.00;;;;;;4971305;28;20035;-88
2022/02/11 06:42:41;;;;;;;15.43;14.73;;;4.00;81.90;;;;;;4954563;28;20037;-87
2022/02/11 06:45:08;;;;;;;16.70;15.80;;;3.90;81.80;;;;;;4972981;28;20500;-87
2022/02/11 06:47:34;;;;;;;18.00;16.80;;;3.90;81.80;;;;;;4974237;28;20045;-88
2022/02/11 06:50:00;;;;;;;16.13;15.40;;;3.90;81.90;;;;;;4973881;28;20039;-88
2022/02/11 06:52:26;;;;;;;16.37;15.57;;;3.90;81.90;;;;;;4971588;28;20047;-88
2022/02/11 06:54:52;;;;;;;15.40;14.70;;;3.90;81.90;;;;;;4974379;28;20064;-88
2022/02/11 06:57:18;;;;;;;16.30;15.50;;;3.90;81.90;;;;;;4974188;28;20039;-88
2022/02/11 06:59:44;;;;;;;16.17;15.37;;;3.90;81.90;;;;;;4975108;28;20027;-88
2022/02/11 07:02:18;;;;;;;16.10;15.40;;;3.80;81.80;;;;;;4962913;28;20050;-87
2022/02/11 07:04:44;;;;;;;16.20;15.30;;;3.80;81.90;;;;;;4968322;28;20041;-90
2022/02/11 07:07:11;;;;;;;16.27;15.47;;;3.80;82.00;;;;;;4972469;28;20030;-88
2022/02/11 07:09:37;;;;;;;16.07;15.37;;;3.80;82.10;;;;;;4974080;28;20026;-88
2022/02/11 07:12:03;;;;;;;16.17;15.33;;;3.80;82.10;;;;;;4974219;28;20046;-89
2022/02/11 07:14:29;;;;;;;15.53;14.73;;;3.80;82.10;;;;;;4973415;28;20390;-88
2022/02/11 07:16:55;;;;;;;17.70;16.80;;;3.80;82.00;;;;;;4972343;28;20043;-90
2022/02/11 07:19:21;;;;;;;16.03;15.33;;;3.70;82.00;;;;;;4955782;28;20038;-88
2022/02/11 07:21:47;;;;;;;16.50;15.60;;;3.70;82.00;;;;;;4973308;28;20498;-88
2022/02/11 07:24:14;;;;;;;16.87;15.97;;;3.70;82.00;;;;;;4957287;28;20046;-89
2022/02/11 07:26:40;;;;;;;16.23;15.43;;;3.70;82.00;;;;;;4973238;28;20038;-89
2022/02/11 07:29:06;;;;;;;15.70;15.00;;;3.70;82.00;;;;;;4974020;28;20046;-88
2022/02/11 07:31:33;;;;;;;16.57;15.73;;;3.60;82.00;;;;;;4973083;28;20133;-88
2022/02/11 07:33:59;;;;;;;16.00;15.30;;;3.60;82.80;;;;;;4971241;28;20038;-87
2022/02/11 07:36:25;;;;;;;15.73;15.03;;;3.60;82.10;;;;;;4956084;28;20043;-87
2022/02/11 07:38:51;;;;;;;16.70;15.90;;;3.60;82.10;;;;;;4970452;28;20473;-88
2022/02/11 07:41:17;;;;;;;16.47;15.67;;;3.60;82.10;;;;;;4965467;28;20035;-89
2022/02/11 07:43:47;;;;;;;16.23;15.40;;;3.60;82.10;;;;;;4966659;28;20038;-89
2022/02/11 07:46:13;;;;;;;16.33;15.57;;;3.60;82.00;;;;;;4972230;28;20038;-88
2022/02/11 07:48:39;;;;;;;16.50;15.70;;;3.70;82.00;;;;;;4971004;28;20482;-88
2022/02/11 07:51:05;;;;;;;16.80;16.00;;;3.70;82.00;;;;;;4971632;28;20077;-87
2022/02/11 07:53:34;;;;;;;15.80;15.10;;;3.70;82.00;;;;;;4971007;28;20043;-88
2022/02/11 07:56:01;;;;;;;16.00;15.20;;;3.70;81.90;;;;;;4972944;28;20042;-83
2022/02/11 07:58:28;;;;;;;16.57;15.77;;;3.70;81.90;;;;;;4971324;28;20035;-82
2022/02/11 08:00:55;;;;;;;16.23;15.47;;;3.70;81.80;;;;;;4967069;28;20039;-82
2022/02/11 08:03:23;;;;;;;15.40;14.70;;;3.70;81.80;;;;;;4970368;28;20057;-83
2022/02/11 08:05:50;;;;;;;16.33;15.33;;;3.70;81.80;;;;;;4972935;28;20034;-82
2022/02/11 08:08:16;;;;;;;16.90;16.03;;;3.80;81.70;;;;;;4969489;28;20045;-82
2022/02/11 08:10:42;;;;;;;16.57;15.77;;;3.80;81.70;;;;;;4970152;28;20035;-81
2022/02/11 08:13:08;;;;;;;15.80;15.10;;;3.80;81.60;;;;;;4970361;28;20053;-84
2022/02/11 08:15:34;;;;;;;14.67;13.97;;;3.80;81.50;;;;;;4971524;28;20045;-81
2022/02/11 08:18:00;;;;;;;16.70;15.80;;;3.80;81.60;;;;;;4971782;28;20508;-81
2022/02/11 08:20:26;;;;;;;15.97;15.27;;;3.90;81.60;;;;;;4969305;28;20034;-81
2022/02/11 08:22:52;;;;;;;15.60;14.90;;;3.90;81.60;;;;;;4970043;28;20038;-82
2022/02/11 08:25:18;;;;;;;16.63;15.83;;;3.90;81.60;;;;;;4972269;28;20034;-83
2022/02/11 08:27:47;;;;;;;18.17;16.13;;;3.90;81.40;;;;;;4970359;28;20493;-84
2022/02/11 08:30:14;;;;;;;16.77;15.97;;;4.00;81.60;;;;;;4971582;28;20039;-86
2022/02/11 08:32:41;;;;;;;17.27;16.03;;;4.00;81.50;;;;;;4970584;28;20054;-84
2022/02/11 08:35:08;;;;;;;16.00;15.30;;;4.10;81.40;;;;;;4968986;28;20396;-84
2022/02/11 08:37:34;;;;;;;15.80;15.10;;;4.10;81.30;;;;;;4968732;28;20035;-84
2022/02/11 08:40:00;;;;;;;16.60;15.80;;;4.20;81.20;;;;;;4969328;28;20027;-83
2022/02/11 08:42:26;;;;;;;17.67;16.77;;;4.30;81.20;;;;;;4969098;28;20031;-83
2022/02/11 08:44:52;;;;;;;16.33;15.57;;;4.30;81.10;;;;;;4969930;28;20031;-83
2022/02/11 08:47:18;;;;;;;16.37;15.57;;;4.30;81.10;;;;;;4967301;28;20039;-83
2022/02/11 08:49:45;;;;;;;16.20;15.40;;;4.40;81.10;;;;;;4968620;28;20049;-83
2022/02/11 08:52:11;;;;;;;16.40;15.60;;;4.50;81.00;;;;;;4969167;28;20047;-84
2022/02/11 08:54:37;;;;;;;16.80;16.00;;;4.60;81.00;;;;;;4985258;28;20062;-88
2022/02/11 08:57:03;;;;;;;16.43;15.63;;;4.60;80.80;;;;;;4968879;28;20490;-89
2022/02/11 08:59:29;;;;;;;17.00;16.10;;;4.80;81.70;;;;;;4965924;28;20042;-86
2022/02/11 09:01:55;;;;;;;16.70;15.90;;;5.00;80.70;;;;;;4967986;28;20262;-87
2022/02/11 09:04:22;;;;;;;15.77;15.07;;;5.20;80.50;;;;;;4968589;28;20041;-87
2022/02/11 09:06:48;;;;;;;16.40;15.60;;;5.40;80.10;;;;;;4969314;28;20058;-87
2022/02/11 09:09:15;;;;;;;17.67;16.67;;;5.50;79.90;;;;;;4972210;28;20027;-88
2022/02/11 09:11:42;;;;;;;15.97;15.17;;;5.70;79.90;;;;;;4971672;28;20062;-88
2022/02/11 09:14:08;;;;;;;17.43;16.30;;;5.80;79.80;;;;;;4968881;28;20034;-89
2022/02/11 09:16:35;;;;;;;17.50;16.60;;;5.90;79.70;;;;;;4971180;28;20046;-88
2022/02/11 09:19:03;;;;;;;17.33;16.43;;;6.00;79.90;;;;;;4968100;28;20369;-87
2022/02/11 09:21:30;;;;;;;16.80;16.00;;;6.10;79.80;;;;;;4969395;28;20489;-88
2022/02/11 09:23:56;;;;;;;16.90;16.10;;;6.20;79.70;;;;;;4972939;28;20621;-89
2022/02/11 09:26:22;;;;;;;16.70;15.90;;;6.30;79.70;;;;;;4968926;28;20031;-86
2022/02/11 09:28:48;;;;;;;17.50;16.70;;;6.30;79.60;;;;;;4970356;28;20390;-88
2022/02/11 09:31:14;;;;;;;17.80;16.90;;;6.40;79.60;;;;;;4968945;28;20042;-88
2022/02/11 09:33:40;;;;;;;17.17;16.37;;;6.50;79.70;;;;;;4966760;28;20027;-89
2022/02/11 09:36:07;;;;;;;17.73;16.93;;;6.60;79.50;;;;;;4968521;28;20038;-88
2022/02/11 09:38:33;;;;;;;18.00;17.20;;;6.80;79.40;;;;;;4970123;28;20042;-88
2022/02/11 09:41:00;;;;;;;17.93;17.13;;;6.90;79.20;;;;;;4968953;28;20054;-89
2022/02/11 09:43:26;;;;;;;18.67;17.67;;;7.10;79.00;;;;;;4969054;28;20027;-89
2022/02/11 09:45:53;;;;;;;17.52;16.73;;;7.40;78.80;;;;;;4971598;28;20035;-88
2022/02/11 09:48:19;;;;;;;17.77;16.87;;;7.80;78.30;;;;;;4954867;28;20042;-87
2022/02/11 09:50:45;;;;;;;19.45;18.45;;;8.30;77.50;;;;;;4970430;28;20042;-89
2022/02/11 09:53:13;;;;;;;19.27;18.35;;;8.80;76.70;;;;;;4969499;28;20421;-87
2022/02/11 09:55:43;;;;;;;18.58;17.67;;;9.10;76.10;;;;;;4967364;28;20035;-88
2022/02/11 09:58:11;;;;;;;18.30;17.40;;;9.30;75.90;;;;;;4958699;28;20051;-88
2022/02/11 10:00:39;;;;;;;20.52;19.52;;;9.50;75.90;;;;;;4971036;28;20042;-87
2022/02/11 10:03:17;;;;;;;20.13;19.13;;;9.60;76.00;;;;;;4962603;28;20382;-85
2022/02/11 10:05:46;;;;;;;21.55;20.55;;;9.70;76.10;;;;;;4975883;28;20030;-85
2022/02/11 10:08:12;;;;;;;1999.90;999.90;;;9.90;76.10;;;;;;4975031;28;20034;-86
2022/02/11 10:10:52;;;;;;;1999.90;999.90;;;10.10;76.10;;;;;;4952529;28;20046;-89
2022/02/11 10:13:20;;;;;;;1999.90;999.90;;;10.20;76.00;;;;;;4973659;28;20070;-89
2022/02/11 10:15:49;;;;;;;1999.90;999.90;;;10.40;75.90;;;;;;4960176;28;20030;-88
2022/02/11 10:18:15;;;;;;;1999.90;999.90;;;10.50;75.90;;;;;;4972307;28;20038;-90
2022/02/11 10:20:47;;;;;;;1999.90;999.90;;;10.50;76.10;;;;;;4965566;28;20035;-88
2022/02/11 10:23:16;;;;;;;1999.90;999.90;;;10.70;76.40;;;;;;4970337;28;20027;-89
2022/02/11 10:26:06;;;;;;;1999.90;999.90;;;10.90;76.10;;;;;;4971762;28;20030;-89
2022/02/11 10:28:38;;;;;;;1999.90;999.90;;;11.30;75.40;;;;;;4970623;28;20029;-89
2022/02/11 10:31:04;;;;;;;1999.90;999.90;;;11.60;74.60;;;;;;4963863;28;20037;-86
2022/02/11 10:34:10;;;;;;;1999.90;999.90;;;11.90;74.10;;;;;;4958572;28;20034;-86
2022/02/11 10:36:49;;;;;;;1999.90;999.90;;;11.90;73.80;;;;;;4963622;28;20418;-86
2022/02/11 10:39:22;;;;;;;1999.90;999.90;;;11.90;73.80;;;;;;4961542;28;20035;-86
2022/02/11 10:41:56;;;;;;;1999.90;999.90;;;11.90;74.10;;;;;;4960702;28;20039;-86
2022/02/11 10:44:27;;;;;;;1999.90;999.90;;;11.90;74.50;;;;;;4960406;28;20039;-87
2022/02/11 10:46:55;;;;;;;1999.90;999.90;;;12.10;74.20;;;;;;4968527;28;20042;-86
2022/02/11 10:49:34;;;;;;;1999.90;999.90;;;12.20;73.70;;;;;;4969718;28;20544;-86
2022/02/11 10:52:10;;;;;;;1999.90;999.90;;;12.10;73.50;;;;;;4971870;28;20046;-85
2022/02/11 10:54:36;;;;;;;1999.90;999.90;;;11.80;73.60;;;;;;4966084;28;20042;-85
2022/02/11 10:57:06;;;;;;;1999.90;999.90;;;11.50;74.20;;;;;;4961494;28;20668;-87
2022/02/11 10:59:34;;;;;;;1999.90;999.90;;;11.30;74.80;;;;;;4970200;28;20031;-85
2022/02/11 11:02:12;;;;;;;1999.90;999.90;;;11.20;75.00;;;;;;4967112;28;20038;-81
2022/02/11 11:04:38;;;;;;;1999.90;999.90;;;11.10;75.00;;;;;;4969990;28;20027;-81
2022/02/11 11:07:06;;;;;;;1999.90;999.90;;;11.00;74.50;;;;;;4974255;28;20042;-82
2022/02/11 11:09:34;;;;;;;1999.90;999.90;;;11.00;74.50;;;;;;4971910;28;20030;-84
2022/02/11 11:12:00;;;;;;;1999.90;999.90;;;11.10;75.10;;;;;;4965743;28;20437;-81
2022/02/11 11:14:30;;;;;;;1999.90;999.90;;;11.10;73.90;;;;;;4974008;28;20046;-82
2022/02/11 11:17:00;;;;;;;1999.90;999.90;;;11.20;73.70;;;;;;4973245;28;20195;-82
2022/02/11 11:19:33;;;;;;;1999.90;999.90;;;11.30;73.40;;;;;;4968656;28;20034;-81
2022/02/11 11:22:16;;;;;;;1999.90;999.90;;;11.30;72.70;;;;;;4972122;28;20528;-81
2022/02/11 11:25:02;;;;;;;1999.90;999.90;;;11.30;72.70;;;;;;4958181;28;20409;-81
2022/02/11 11:27:50;;;;;;;1999.90;999.90;;;11.30;73.20;;;;;;4974020;28;20019;-82
2022/02/11 11:30:37;;;;;;;1999.90;999.90;;;11.40;73.20;;;;;;4986102;28;20042;-84
2022/02/11 11:33:09;;;;;;;1999.90;999.90;;;11.40;73.10;;;;;;4962247;28;20039;-83
2022/02/11 11:35:42;;;;;;;1999.90;999.90;;;11.50;72.50;;;;;;4970009;28;20069;-82
2022/02/11 11:38:10;;;;;;;1999.90;999.90;;;11.50;71.60;;;;;;4973496;28;20046;-84
2022/02/11 11:40:37;;;;;;;1999.90;999.90;;;11.40;71.20;;;;;;4966221;28;20111;-87
2022/02/11 11:43:13;;;;;;;1999.90;999.90;;;11.40;71.20;;;;;;4971069;28;20030;-88
2022/02/11 11:45:42;;;;;;;1999.90;999.90;;;11.50;71.50;;;;;;4956455;28;20030;-87
2022/02/11 11:48:15;;;;;;;1999.90;999.90;;;11.50;70.80;;;;;;4972060;28;20382;-84
2022/02/11 11:50:41;;;;;;;1999.90;999.90;;;11.60;70.70;;;;;;4973356;28;20035;-87
2022/02/11 11:53:28;;;;;;;1999.90;999.90;;;11.60;70.40;;;;;;4970113;28;20528;-85
2022/02/11 11:55:54;;;;;;;1999.90;999.90;;;11.60;70.40;;;;;;4963925;28;20054;-85
2022/02/11 11:58:34;;;;;;;1999.90;999.90;;;11.60;69.90;;;;;;4947026;28;20053;-86
2022/02/11 12:01:01;;;;;;;1999.90;999.90;;;11.50;70.00;;;;;;4970931;28;20529;-85
2022/02/11 12:03:27;;;;;;;1999.90;999.90;;;11.30;69.90;;;;;;4972537;28;20046;-84
2022/02/11 12:05:53;;;;;;;1999.90;999.90;;;11.20;70.30;;;;;;4973495;28;20042;-85
2022/02/11 12:08:29;;;;;;;1999.90;999.90;;;11.10;70.60;;;;;;4972971;28;20066;-84
2022/02/11 12:10:57;;;;;;;1999.90;999.90;;;11.10;70.30;;;;;;4963166;28;20032;-85
2022/02/11 12:13:23;;;;;;;1999.90;999.90;;;11.00;70.10;;;;;;4965960;28;20050;-86
2022/02/11 12:15:49;;;;;;;1999.90;999.90;;;11.00;70.00;;;;;;4955033;28;20031;-85
2022/02/11 12:18:15;;;;;;;1999.90;999.90;;;11.10;69.00;;;;;;4972338;28;20045;-85
2022/02/11 12:20:43;;;;;;;1999.90;999.90;;;11.20;68.20;;;;;;4969166;28;20030;-83
2022/02/11 12:28:41;;;;;;;1999.90;999.90;;;11.20;68.20;;;;;;4973256;28;20035;-85
2022/02/11 12:31:07;;;;;;;1999.90;999.90;;;11.00;68.30;;;;;;4960037;28;20043;-84
2022/02/11 12:33:34;;;;;;;1999.90;999.90;;;11.00;68.80;;;;;;4970114;28;20485;-84
2022/02/11 12:36:12;;;;;;;1999.90;999.90;;;11.10;68.60;;;;;;4971621;28;20042;-86
2022/02/11 12:38:38;;;;;;;1999.90;999.90;;;11.40;68.50;;;;;;4971881;28;20030;-85
2022/02/11 12:41:04;;;;;;;1999.90;999.90;;;11.40;67.70;;;;;;4962457;28;20046;-87
2022/02/11 12:43:31;;;;;;;1999.90;999.90;;;11.60;67.50;;;;;;4971992;28;20045;-84
2022/02/11 12:45:57;;;;;;;1999.90;999.90;;;11.60;67.00;;;;;;4965485;28;20034;-84
2022/02/11 12:48:30;;;;;;;1999.90;999.90;;;11.60;66.80;;;;;;4954252;28;20051;-84
2022/02/11 12:50:56;;;;;;;1999.90;999.90;;;11.60;66.40;;;;;;4955882;28;20383;-85
2022/02/11 12:53:25;;;;;;;1999.90;999.90;;;11.60;65.90;;;;;;4969686;28;20050;-84
2022/02/11 12:55:51;;;;;;;1999.90;999.90;;;11.70;66.10;;;;;;4971948;28;20023;-83
2022/02/11 12:58:19;;;;;;;1999.90;999.90;;;11.80;65.40;;;;;;4954502;28;20042;-85
2022/02/11 13:00:46;;;;;;;1999.90;999.90;;;11.80;65.20;;;;;;4971259;28;20039;-84
2022/02/11 13:03:14;;;;;;;1999.90;999.90;;;11.80;64.80;;;;;;4970943;28;20034;-84
2022/02/11 13:05:45;;;;;;;1999.90;999.90;;;11.80;64.60;;;;;;4958916;28;20038;-84
2022/02/11 13:08:21;;;;;;;1999.90;999.90;;;11.70;64.30;;;;;;4967567;28;20055;-84
2022/02/11 13:10:57;;;;;;;1999.90;999.90;;;11.60;64.70;;;;;;4965046;28;20031;-85
2022/02/11 13:13:23;;;;;;;1999.90;999.90;;;11.60;65.10;;;;;;4963603;28;20043;-84
2022/02/11 13:15:49;;;;;;;1999.90;999.90;;;11.70;64.70;;;;;;4971172;28;20042;-84
2022/02/11 13:18:20;;;;;;;1999.90;999.90;;;11.80;64.30;;;;;;4969913;28;20027;-83
2022/02/11 13:20:47;;;;;;;1999.90;999.90;;;11.80;64.30;;;;;;4955208;28;20035;-84
2022/02/11 13:23:15;;;;;;;1999.90;999.90;;;11.90;64.20;;;;;;4970035;28;20034;-85
2022/02/11 13:25:42;;;;;;;1999.90;999.90;;;11.90;63.90;;;;;;4970554;28;20027;-85
2022/02/11 13:28:10;;;;;;;1999.90;999.90;;;12.00;63.50;;;;;;4970680;28;20035;-85
2022/02/11 13:30:38;;;;;;;1999.90;999.90;;;12.00;63.20;;;;;;4971263;28;20406;-84
2022/02/11 13:33:23;;;;;;;1999.90;999.90;;;12.10;62.80;;;;;;4972977;28;20493;-85
2022/02/11 13:35:50;;;;;;;1999.90;999.90;;;12.10;62.20;;;;;;4966683;28;20027;-84
2022/02/11 13:38:30;;;;;;;1999.90;999.90;;;12.00;62.00;;;;;;4973506;28;20517;-84
2022/02/11 13:41:09;;;;;;;1999.90;999.90;;;12.00;61.90;;;;;;4966909;28;20031;-85
2022/02/11 13:43:52;;;;;;;1999.90;999.90;;;12.00;61.50;;;;;;4967662;28;20039;-84
2022/02/11 13:46:27;;;;;;;1999.90;999.90;;;11.90;61.10;;;;;;4965728;28;20035;-85
2022/02/11 13:48:55;;;;;;;1999.90;999.90;;;11.80;60.60;;;;;;4974550;28;20034;-84
2022/02/11 13:51:21;;;;;;;1999.90;999.90;;;11.90;61.10;;;;;;4967438;28;20043;-84
2022/02/11 13:53:52;;;;;;;1999.90;999.90;;;12.00;61.70;;;;;;4973573;28;20383;-84
2022/02/11 13:56:41;;;;;;;1999.90;999.90;;;12.00;60.50;;;;;;4974258;28;20043;-84
2022/02/11 13:59:13;;;;;;;1999.90;999.90;;;12.00;60.10;;;;;;4974500;28;20418;-84
2022/02/11 14:01:43;;;;;;;1999.90;999.90;;;12.00;60.30;;;;;;4972277;28;20062;-84
2022/02/11 14:04:14;;;;;;;1999.90;999.90;;;12.10;60.50;;;;;;4970107;28;20078;-85
2022/02/11 14:07:00;;;;;;;1999.90;999.90;;;12.10;60.40;;;;;;4970365;28;20416;-84
2022/02/11 14:09:26;;;;;;;1999.90;999.90;;;12.20;60.40;;;;;;4971603;28;20042;-85
2022/02/11 14:11:52;;;;;;;1999.90;999.90;;;12.20;60.20;;;;;;4969813;28;20446;-85
2022/02/11 14:14:21;;;;;;;1999.90;999.90;;;12.20;59.50;;;;;;4973555;28;20043;-84
2022/02/11 14:16:47;;;;;;;1999.90;999.90;;;12.10;59.50;;;;;;4973861;28;20035;-85
2022/02/11 14:19:18;;;;;;;1999.90;999.90;;;12.10;59.40;;;;;;4973457;28;20422;-84
2022/02/11 14:21:44;;;;;;;1999.90;999.90;;;12.00;59.40;;;;;;4944973;28;20035;-84
2022/02/11 14:24:10;;;;;;;1999.90;999.90;;;12.00;59.40;;;;;;4972861;28;20484;-84
2022/02/11 14:26:36;;;;;;;1999.90;999.90;;;12.00;59.20;;;;;;4975059;28;20378;-84
2022/02/11 14:29:03;;;;;;;1999.90;999.90;;;12.00;59.30;;;;;;4957258;28;20504;-84
2022/02/11 14:31:31;;;;;;;1999.90;999.90;;;12.00;59.40;;;;;;4973113;28;20498;-84
2022/02/11 14:33:57;;;;;;;1999.90;999.90;;;12.00;59.40;;;;;;4973564;28;20035;-82
2022/02/11 14:36:23;;;;;;;1999.90;999.90;;;12.10;59.60;;;;;;4957621;28;20034;-82
2022/02/11 14:38:50;;;;;;;1999.90;999.90;;;12.10;59.60;;;;;;4972351;28;20057;-82
2022/02/11 14:44:00;;;;;;;1999.90;999.90;;;12.20;59.40;;;;;;4974808;28;20039;-84
2022/02/11 14:46:26;;;;;;;1999.90;999.90;;;12.20;59.30;;;;;;4958598;28;20034;-85
2022/02/11 14:48:53;;;;;;;1999.90;999.90;;;12.20;59.30;;;;;;4972816;28;20402;-84
2022/02/11 14:51:20;;;;;;;1999.90;999.90;;;12.20;59.40;;;;;;4973611;28;20054;-84
2022/02/11 14:53:46;;;;;;;1999.90;999.90;;;12.20;59.40;;;;;;4974134;28;20051;-84
2022/02/11 14:56:12;;;;;;;1999.90;999.90;;;12.20;59.60;;;;;;4974077;28;20027;-85
2022/02/11 14:58:38;;;;;;;1999.90;999.90;;;12.10;59.20;;;;;;4973346;28;20393;-84
2022/02/11 15:01:05;;;;;;;1999.90;999.90;;;12.10;59.30;;;;;;4965047;28;20031;-82
2022/02/11 15:03:32;;;;;;;1999.90;999.90;;;12.00;59.40;;;;;;4966709;28;20038;-86
2022/02/11 15:05:58;;;;;;;1999.90;999.90;;;12.00;59.50;;;;;;4967694;28;20035;-84
2022/02/11 15:08:24;;;;;;;1999.90;999.90;;;12.00;59.50;;;;;;4969406;28;20477;-86
2022/02/11 15:10:51;;;;;;;1999.90;999.90;;;11.90;59.30;;;;;;4964325;28;20035;-85
2022/02/11 15:13:17;;;;;;;1999.90;999.90;;;11.90;59.60;;;;;;4959392;28;20047;-85
2022/02/11 15:15:43;;;;;;;1999.90;999.90;;;11.90;59.60;;;;;;4971709;28;20042;-83
2022/02/11 15:18:10;;;;;;;1999.90;999.90;;;11.90;59.70;;;;;;4972830;28;20027;-83
2022/02/11 15:20:40;;;;;;;1999.90;999.90;;;11.90;59.80;;;;;;4960058;28;20035;-82
2022/02/11 15:23:06;;;;;;;1999.90;999.90;;;11.90;59.60;;;;;;4968496;28;20050;-83
2022/02/11 15:25:32;;;;;;;1999.90;999.90;;;11.80;59.40;;;;;;4972999;28;20030;-82
2022/02/11 15:27:58;;;;;;;1999.90;999.90;;;11.80;59.60;;;;;;4963203;28;20043;-82
2022/02/11 15:30:24;;;;;;;1999.90;999.90;;;11.80;59.40;;;;;;4972073;28;20031;-85
2022/02/11 15:32:51;;;;;;;1999.90;999.90;;;11.80;59.60;;;;;;4961794;28;20074;-86
2022/02/11 15:35:17;;;;;;;1999.90;999.90;;;11.80;59.60;;;;;;4969921;28;20031;-86
2022/02/11 15:37:43;;;;;;;1999.90;999.90;;;11.80;59.70;;;;;;4955836;28;20027;-86
2022/02/11 15:40:09;;;;;;;1999.90;999.90;;;11.80;59.60;;;;;;4969540;28;20038;-87
2022/02/11 15:42:36;;;;;;;1999.90;999.90;;;11.70;59.20;;;;;;4973146;28;20031;-86
2022/02/11 15:45:02;;;;;;;1999.90;999.90;;;11.60;59.80;;;;;;4973456;28;20516;-87
2022/02/11 15:47:29;;;;;;;1999.90;999.90;;;11.60;59.40;;;;;;4971971;28;20035;-86
2022/02/11 15:49:55;;;;;;;1999.90;999.90;;;11.70;59.40;;;;;;4973118;28;20041;-87
2022/02/11 15:52:22;;;;;;;1999.90;999.90;;;11.60;59.50;;;;;;4971386;28;20524;-86
2022/02/11 15:54:49;;;;;;;1999.90;999.90;;;11.60;60.20;;;;;;4973132;28;20309;-86
2022/02/11 15:57:15;;;;;;;1999.90;999.90;;;11.70;59.60;;;;;;4971363;28;20026;-87
2022/02/11 15:59:44;;;;;;;1999.90;999.90;;;11.70;59.50;;;;;;4973212;28;20512;-87
2022/02/11 16:02:11;;;;;;;1999.90;999.90;;;11.60;59.40;;;;;;4970685;28;20050;-87
2022/02/11 16:04:37;;;;;;;1999.90;999.90;;;11.60;59.30;;;;;;4971960;28;20043;-86
2022/02/11 16:07:03;;;;;;;1999.90;999.90;;;11.60;59.50;;;;;;4972808;28;20042;-87
2022/02/11 16:09:29;;;;;;;1999.90;999.90;;;11.50;59.40;;;;;;4972265;28;20042;-87
2022/02/11 16:11:57;;;;;;;1999.90;999.90;;;11.50;59.40;;;;;;4971529;28;20030;-87
2022/02/11 16:14:24;;;;;;;1999.90;999.90;;;11.50;59.40;;;;;;4970896;28;20047;-86
2022/02/11 16:16:52;;;;;;;1999.90;999.90;;;11.40;59.20;;;;;;4969987;28;20022;-86
2022/02/11 16:19:18;;;;;;;1999.90;999.90;;;11.30;59.90;;;;;;4971847;28;20039;-87